Time;durP1;ratioP1;P1;durP2;ratioP2;P2;SDS_P1;SDS_P2;PMS_P1;PMS_P2;Temp;Humidity;BMP_temperature;BMP_pressure;BME280_temperature;BME280_humidity;BME280_pressure;Samples;Min_cycle;Max_cycle;Signal;HPM_P1;HPM_P2
2022/11/07 00:01:15;;;;;;;9.00;2.78;;;;;;;9.87;98.34;100712.53;5018390;28;20432;-79
2022/11/07 00:03:40;;;;;;;10.45;3.00;;;;;;;9.90;98.57;100707.16;5029402;28;20041;-79
2022/11/07 00:06:06;;;;;;;10.95;3.30;;;;;;;9.91;98.49;100710.66;5026838;28;20469;-79
2022/11/07 00:08:31;;;;;;;7.30;2.80;;;;;;;9.87;98.41;100720.47;5030196;28;20120;-79
2022/11/07 00:11:01;;;;;;;9.65;3.00;;;;;;;9.90;98.33;100717.75;5030087;28;20061;-79
2022/11/07 00:13:27;;;;;;;8.02;2.95;;;;;;;9.90;98.40;100722.16;5021631;28;20057;-79
2022/11/07 00:16:00;;;;;;;4.95;2.50;;;;;;;10.00;97.92;100706.97;5028390;28;20025;-79
2022/11/07 00:18:26;;;;;;;9.75;2.72;;;;;;;9.98;98.16;100714.94;5014415;28;20038;-79
2022/11/07 00:20:51;;;;;;;6.60;2.75;;;;;;;10.01;97.96;100719.28;5044278;28;20021;-79
2022/11/07 00:23:17;;;;;;;15.02;3.33;;;;;;;10.05;98.01;100715.69;5026717;28;20064;-78
2022/11/07 00:25:43;;;;;;;8.55;3.00;;;;;;;10.04;98.05;100714.81;5027633;28;20038;-79
2022/11/07 00:28:08;;;;;;;11.10;2.80;;;;;;;10.07;97.83;100720.03;5033727;28;20037;-79
2022/11/07 00:30:33;;;;;;;7.80;2.72;;;;;;;10.01;97.93;100722.78;5022626;28;20030;-79
2022/11/07 00:32:59;;;;;;;8.18;2.92;;;;;;;10.02;97.75;100731.63;5031200;28;20119;-79
2022/11/07 00:35:24;;;;;;;6.85;2.53;;;;;;;9.98;97.69;100727.28;5033751;28;20589;-79
2022/11/07 00:37:53;;;;;;;8.02;2.70;;;;;;;9.95;98.04;100724.72;5024170;28;20474;-79
2022/11/07 00:40:18;;;;;;;11.57;3.30;;;;;;;9.93;98.02;100726.53;5032509;28;20040;-79
2022/11/07 00:42:44;;;;;;;7.35;2.88;;;;;;;9.86;98.33;100733.69;5033150;28;20037;-79
2022/11/07 00:45:10;;;;;;;9.45;2.75;;;;;;;9.82;98.39;100734.69;5017798;28;20079;-79
2022/11/07 00:47:36;;;;;;;8.82;2.83;;;;;;;9.77;99.10;100736.56;5032413;28;20492;-79
2022/11/07 00:50:01;;;;;;;13.52;3.17;;;;;;;9.79;98.74;100730.34;5012655;28;20029;-79
2022/11/07 00:52:27;;;;;;;7.43;2.60;;;;;;;9.74;98.57;100734.81;5032882;28;20426;-79
2022/11/07 00:54:52;;;;;;;8.57;2.90;;;;;;;9.74;99.01;100739.25;5032168;28;20025;-79
2022/11/07 00:57:20;;;;;;;10.55;2.75;;;;;;;9.71;98.50;100734.03;5031904;28;20071;-79
2022/11/07 00:59:46;;;;;;;7.72;2.30;;;;;;;9.71;99.08;100741.94;5033619;28;20026;-79
2022/11/07 01:02:11;;;;;;;9.65;2.35;;;;;;;9.66;99.03;100734.09;5032043;28;20045;-79
2022/11/07 01:07:21;;;;;;;10.30;3.53;;;;;;;9.63;99.21;100731.53;5026356;28;20037;-79
2022/11/07 01:09:46;;;;;;;6.47;2.80;;;;;;;9.67;99.57;100734.09;5033346;28;20095;-79
2022/11/07 01:12:11;;;;;;;10.68;3.10;;;;;;;9.66;99.75;100750.84;5032037;28;20533;-79
2022/11/07 01:14:37;;;;;;;9.50;2.67;;;;;;;9.63;99.40;100745.63;5015369;28;20021;-79
2022/11/07 01:17:02;;;;;;;10.90;2.90;;;;;;;9.63;99.89;100750.03;5033158;28;20130;-79
2022/11/07 01:19:28;;;;;;;9.30;2.80;;;;;;;9.63;99.83;100756.19;5032932;28;20442;-79
2022/11/07 01:21:53;;;;;;;11.77;2.90;;;;;;;9.65;99.62;100756.19;5031315;28;20072;-79
2022/11/07 01:24:19;;;;;;;11.23;3.03;;;;;;;9.66;99.66;100760.53;5032577;28;20038;-79
2022/11/07 01:26:48;;;;;;;12.45;2.90;;;;;;;9.66;99.52;100765.84;5031635;28;20402;-79
2022/11/07 01:29:15;;;;;;;8.70;3.05;;;;;;;9.62;100.00;100774.75;5031105;28;20541;-79
2022/11/07 01:31:41;;;;;;;8.73;2.95;;;;;;;9.61;100.00;100773.84;5046695;28;20098;-79
2022/11/07 01:34:06;;;;;;;8.70;2.72;;;;;;;9.62;100.00;100775.63;5032858;28;20513;-79
2022/11/07 01:36:32;;;;;;;9.57;2.55;;;;;;;9.59;100.00;100775.66;5014811;28;20087;-79
2022/11/07 01:38:58;;;;;;;8.13;2.70;;;;;;;9.60;100.00;100776.53;5032441;28;20082;-79
2022/11/07 01:41:27;;;;;;;11.18;2.85;;;;;;;9.60;100.00;100774.75;5032474;28;20084;-79
2022/11/07 01:43:57;;;;;;;10.18;2.90;;;;;;;9.62;100.00;100772.97;5031786;28;20115;-79
2022/11/07 01:46:33;;;;;;;13.27;3.20;;;;;;;9.66;100.00;100774.63;5030279;28;20057;-74
2022/11/07 01:49:23;;;;;;;6.10;2.63;;;;;;;9.70;100.00;100775.47;5031565;28;20109;-75
2022/11/07 01:51:53;;;;;;;10.98;2.83;;;;;;;9.71;100.00;100774.53;5030304;28;20092;-74
2022/11/07 01:54:23;;;;;;;10.02;2.78;;;;;;;9.69;100.00;100773.69;5030159;28;20072;-74
2022/11/07 01:56:50;;;;;;;8.15;2.85;;;;;;;9.70;99.76;100770.19;5031809;28;20146;-75
2022/11/07 01:59:18;;;;;;;12.48;3.42;;;;;;;9.67;100.00;100775.53;5030168;28;20025;-75
2022/11/07 02:01:47;;;;;;;9.90;2.83;;;;;;;9.66;100.00;100776.41;5031735;28;20033;-74
2022/11/07 02:04:14;;;;;;;7.70;3.20;;;;;;;9.66;100.00;100774.63;5031468;28;20421;-75
2022/11/07 02:06:45;;;;;;;7.28;2.50;;;;;;;9.69;100.00;100779.88;5029747;28;20037;-75
2022/11/07 02:09:12;;;;;;;9.52;2.60;;;;;;;9.75;100.00;100770.09;5026262;28;20168;-75
2022/11/07 02:11:37;;;;;;;10.50;2.80;;;;;;;9.88;100.00;100772.44;5029850;28;20374;-74
2022/11/07 02:14:03;;;;;;;10.15;2.97;;;;;;;9.86;100.00;100784.81;5031503;28;20076;-74
2022/11/07 02:16:31;;;;;;;13.30;3.50;;;;;;;9.88;100.00;100780.38;5031308;28;20120;-74
2022/11/07 02:18:58;;;;;;;9.98;2.92;;;;;;;9.92;100.00;100780.34;5030108;28;20049;-75
2022/11/07 02:21:39;;;;;;;11.35;2.83;;;;;;;9.95;100.00;100789.06;5030868;28;20044;-75
2022/11/07 02:24:08;;;;;;;8.18;2.35;;;;;;;9.96;100.00;100782.88;5029956;28;20441;-75
2022/11/07 02:26:35;;;;;;;13.68;2.42;;;;;;;9.98;100.00;100770.47;5029727;28;20091;-75
2022/11/07 02:29:06;;;;;;;8.65;2.60;;;;;;;9.98;100.00;100782.84;5013169;28;20110;-74
2022/11/07 02:31:32;;;;;;;9.45;2.80;;;;;;;9.95;100.00;100783.78;5031157;28;20375;-74
2022/11/07 02:33:57;;;;;;;10.23;3.25;;;;;;;9.93;100.00;100780.28;5009905;28;20036;-74
2022/11/07 02:36:24;;;;;;;8.63;2.53;;;;;;;9.96;100.00;100796.09;5009790;28;20053;-75
2022/11/07 02:38:56;;;;;;;11.07;3.10;;;;;;;10.00;100.00;100786.34;5028951;28;20056;-75
2022/11/07 02:41:25;;;;;;;13.93;2.97;;;;;;;10.01;100.00;100781.00;5038532;28;20098;-75
2022/11/07 02:43:58;;;;;;;13.88;3.17;;;;;;;10.09;100.00;100789.66;5031304;28;20078;-75
2022/11/07 02:46:26;;;;;;;16.10;2.90;;;;;;;10.04;100.00;100780.97;5029604;28;20056;-75
2022/11/07 02:48:57;;;;;;;13.13;3.38;;;;;;;10.03;100.00;100773.91;5029198;28;20530;-75
2022/11/07 02:51:23;;;;;;;16.55;3.33;;;;;;;10.02;100.00;100779.25;5030650;28;20449;-75
2022/11/07 02:53:49;;;;;;;16.73;3.05;;;;;;;10.01;100.00;100780.13;5029117;28;20033;-75
2022/11/07 02:56:14;;;;;;;12.43;3.10;;;;;;;10.03;100.00;100773.91;5030765;28;20041;-75
2022/11/07 02:58:40;;;;;;;11.10;3.20;;;;;;;10.00;100.00;100762.53;5029216;28;20025;-75
2022/11/07 03:01:06;;;;;;;10.55;3.00;;;;;;;9.95;100.00;100765.25;5030472;28;20457;-75
2022/11/07 03:03:37;;;;;;;13.45;2.80;;;;;;;9.95;100.00;100764.41;5029377;28;20473;-75
2022/11/07 03:06:05;;;;;;;12.07;2.83;;;;;;;9.94;100.00;100763.53;5029094;28;20033;-75
2022/11/07 03:08:30;;;;;;;9.30;2.40;;;;;;;9.94;100.00;100770.56;5028825;28;20033;-75
2022/11/07 03:10:56;;;;;;;15.80;3.03;;;;;;;9.97;100.00;100773.19;5030253;28;20072;-75
2022/11/07 03:13:22;;;;;;;11.45;3.03;;;;;;;9.92;100.00;100772.41;5031093;28;20028;-75
2022/11/07 03:15:48;;;;;;;15.07;3.50;;;;;;;9.89;100.00;100768.00;5029222;28;20049;-75
2022/11/07 03:18:14;;;;;;;8.85;3.05;;;;;;;9.86;100.00;100763.66;5030464;28;20021;-75
2022/11/07 03:20:39;;;;;;;7.90;2.67;;;;;;;9.89;100.00;100771.56;5030532;28;20510;-75
2022/11/07 03:23:05;;;;;;;12.73;3.15;;;;;;;9.86;100.00;100778.66;5028455;28;20129;-75
2022/11/07 03:25:30;;;;;;;10.80;2.90;;;;;;;9.83;100.00;100776.09;5028937;28;20128;-75
2022/11/07 03:27:56;;;;;;;13.23;3.08;;;;;;;9.83;100.00;100770.81;5030312;28;20029;-75
2022/11/07 03:30:21;;;;;;;12.52;2.70;;;;;;;9.83;100.00;100773.44;5030432;28;20045;-75
2022/11/07 03:32:46;;;;;;;13.65;2.95;;;;;;;9.80;100.00;100778.81;5029541;28;20104;-75
2022/11/07 03:35:12;;;;;;;12.68;3.00;;;;;;;9.78;100.00;100784.09;5028952;28;20124;-75
2022/11/07 03:37:38;;;;;;;13.52;3.72;;;;;;;9.77;100.00;100784.16;5028875;28;20503;-75
2022/11/07 03:40:04;;;;;;;10.23;2.95;;;;;;;9.75;100.00;100786.81;5028997;28;20029;-75
2022/11/07 03:42:29;;;;;;;8.98;2.72;;;;;;;9.73;100.00;100779.81;5027881;28;20029;-79
2022/11/07 03:44:54;;;;;;;16.00;3.08;;;;;;;9.73;100.00;100799.19;5022601;28;20041;-79
2022/11/07 03:47:20;;;;;;;14.85;3.20;;;;;;;9.75;100.00;100791.25;5010435;28;20030;-79
2022/11/07 03:49:45;;;;;;;13.25;2.70;;;;;;;9.78;100.00;100792.03;5017841;28;20079;-75
2022/11/07 03:52:11;;;;;;;11.75;3.17;;;;;;;9.78;100.00;100792.03;5033500;28;20033;-75
2022/11/07 03:54:36;;;;;;;13.23;2.90;;;;;;;9.82;100.00;100783.16;5012803;28;20148;-75
2022/11/07 03:57:02;;;;;;;17.42;3.72;;;;;;;9.83;100.00;100789.31;5016045;28;20037;-74
2022/11/07 03:59:27;;;;;;;10.32;2.67;;;;;;;9.86;100.00;100792.75;5032664;28;20128;-75
2022/11/07 04:01:53;;;;;;;9.15;2.67;;;;;;;9.89;100.00;100791.81;5014780;28;20033;-75
2022/11/07 04:04:18;;;;;;;14.20;3.20;;;;;;;9.89;100.00;100778.59;5034159;28;20109;-75
2022/11/07 04:06:44;;;;;;;11.38;3.00;;;;;;;9.92;100.00;100786.50;5032286;28;20568;-75
2022/11/07 04:09:09;;;;;;;14.05;2.75;;;;;;;9.97;100.00;100779.34;5032591;28;20044;-75
2022/11/07 04:17:18;;;;;;;11.10;2.90;;;;;;;9.99;100.00;100774.88;5032657;28;20038;-75
2022/11/07 04:19:45;;;;;;;11.25;2.70;;;;;;;10.04;100.00;100772.13;5033909;28;20059;-75
2022/11/07 04:22:10;;;;;;;16.35;3.45;;;;;;;10.03;100.00;100775.69;5033516;28;20099;-75
2022/11/07 04:24:36;;;;;;;18.90;3.00;;;;;;;10.03;100.00;100778.31;5015770;28;20037;-75
2022/11/07 04:29:45;;;;;;;11.63;2.75;;;;;;;10.03;100.00;100789.78;5037546;28;20087;-74
2022/11/07 04:32:11;;;;;;;16.83;3.03;;;;;;;10.02;100.00;100788.03;5032120;28;20072;-74
2022/11/07 04:34:36;;;;;;;12.00;2.72;;;;;;;9.99;100.00;100781.94;5032108;28;20049;-75
2022/11/07 04:37:02;;;;;;;15.52;3.00;;;;;;;9.97;100.00;100781.13;5012031;28;20038;-75
2022/11/07 04:39:27;;;;;;;11.93;2.85;;;;;;;9.99;100.00;100787.22;5028911;28;20457;-74
2022/11/07 04:41:55;;;;;;;17.13;3.65;;;;;;;9.98;100.00;100791.66;5011830;28;20037;-74
2022/11/07 04:44:21;;;;;;;14.80;3.15;;;;;;;9.96;100.00;100796.09;5031008;28;20108;-74
2022/11/07 04:46:46;;;;;;;12.40;3.03;;;;;;;9.93;100.00;100795.28;5043850;28;20537;-74
2022/11/07 04:49:14;;;;;;;14.48;2.90;;;;;;;9.88;100.00;100793.59;5032753;28;20060;-74
2022/11/07 04:51:43;;;;;;;15.30;2.83;;;;;;;9.93;100.00;100790.88;5032824;28;20060;-74
2022/11/07 04:54:13;;;;;;;14.68;2.92;;;;;;;9.92;100.00;100785.63;5032668;28;20361;-74
2022/11/07 04:56:39;;;;;;;18.45;3.05;;;;;;;9.91;100.00;100787.38;5032593;28;20080;-75
2022/11/07 04:59:04;;;;;;;15.48;3.20;;;;;;;9.90;100.00;100793.59;5032644;28;20428;-74
2022/11/07 05:01:30;;;;;;;15.25;3.45;;;;;;;9.92;100.00;100786.50;5032468;28;20144;-74
2022/11/07 05:03:56;;;;;;;14.52;2.50;;;;;;;9.94;100.00;100797.91;5031610;28;20472;-74
2022/11/07 05:06:22;;;;;;;12.52;3.60;;;;;;;9.96;100.00;100811.09;5032622;28;20030;-74
2022/11/07 05:08:48;;;;;;;18.13;3.90;;;;;;;9.98;100.00;100801.38;5030812;28;20021;-74
2022/11/07 05:11:14;;;;;;;13.25;3.10;;;;;;;10.04;100.00;100799.47;5030903;28;20056;-74
2022/11/07 05:13:39;;;;;;;16.73;2.70;;;;;;;10.08;100.00;100805.56;5030901;28;20026;-74
2022/11/07 05:16:10;;;;;;;20.50;3.47;;;;;;;10.09;100.00;100807.31;5032407;28;20061;-74
2022/11/07 05:18:36;;;;;;;19.92;3.88;;;;;;;10.07;100.00;100804.69;5032489;28;20033;-74
2022/11/07 05:21:01;;;;;;;18.40;3.75;;;;;;;10.13;100.00;100808.97;5032186;28;20112;-74
2022/11/07 05:23:27;;;;;;;14.35;2.92;;;;;;;10.13;100.00;100811.63;5032352;28;20141;-74
2022/11/07 05:25:53;;;;;;;14.95;4.05;;;;;;;10.15;100.00;100814.25;5032112;28;20481;-74
2022/11/07 05:28:23;;;;;;;20.08;3.17;;;;;;;10.18;99.90;100807.13;5011463;28;20034;-74
2022/11/07 05:30:48;;;;;;;23.00;3.85;;;;;;;10.20;99.97;100818.53;5036922;28;20021;-74
2022/11/07 05:33:16;;;;;;;13.50;2.97;;;;;;;10.22;99.79;100819.38;5041633;28;20041;-74
2022/11/07 05:35:42;;;;;;;18.27;3.20;;;;;;;10.27;99.28;100816.66;5044577;28;20512;-74
2022/11/07 05:38:08;;;;;;;19.02;3.10;;;;;;;10.26;99.44;100812.25;5045817;28;20200;-74
2022/11/07 05:40:35;;;;;;;12.32;2.60;;;;;;;10.25;99.42;100814.03;5039361;28;20063;-74
2022/11/07 05:43:02;;;;;;;17.80;2.80;;;;;;;10.27;98.75;100819.28;5039311;28;20083;-74
2022/11/07 05:45:28;;;;;;;13.27;3.05;;;;;;;10.26;99.11;100812.25;5045279;28;20599;-74
2022/11/07 05:48:01;;;;;;;15.15;3.25;;;;;;;10.27;99.09;100808.72;5041632;28;20051;-74
2022/11/07 05:50:29;;;;;;;13.35;3.20;;;;;;;10.25;99.21;100813.16;5046658;28;20041;-74
2022/11/07 05:52:55;;;;;;;15.48;3.22;;;;;;;10.25;99.03;100819.31;5043354;28;20163;-75
2022/11/07 05:55:21;;;;;;;23.33;4.47;;;;;;;10.27;98.88;100814.88;5041718;28;20262;-74
2022/11/07 05:57:47;;;;;;;18.23;2.75;;;;;;;10.27;99.24;100819.28;5040120;28;20048;-74
2022/11/07 06:00:17;;;;;;;14.40;2.90;;;;;;;10.28;98.81;100806.03;5025982;28;20457;-74
2022/11/07 06:02:44;;;;;;;19.05;3.03;;;;;;;10.28;99.02;100818.41;5039483;28;20518;-74
2022/11/07 06:05:10;;;;;;;11.43;3.20;;;;;;;10.34;98.41;100815.66;5045288;28;20028;-74
2022/11/07 06:07:37;;;;;;;17.25;3.53;;;;;;;10.31;98.59;100807.75;5047846;28;20033;-74
2022/11/07 06:10:07;;;;;;;16.35;3.10;;;;;;;10.28;98.52;100806.03;5045709;28;20531;-74
2022/11/07 06:12:33;;;;;;;15.32;2.92;;;;;;;10.28;98.65;100807.81;5023781;28;20044;-74
2022/11/07 06:14:58;;;;;;;14.90;3.22;;;;;;;10.28;98.59;100800.75;5036888;28;20021;-74
2022/11/07 06:17:24;;;;;;;18.75;3.38;;;;;;;10.29;98.79;100809.59;5015960;28;20433;-74
2022/11/07 06:19:50;;;;;;;16.70;3.00;;;;;;;10.26;98.83;100810.50;5011693;28;20032;-74
2022/11/07 06:22:15;;;;;;;24.02;4.15;;;;;;;10.25;98.86;100821.97;5027334;28;20136;-74
2022/11/07 06:24:41;;;;;;;17.05;3.35;;;;;;;10.26;98.86;100810.50;5037473;28;20444;-75
2022/11/07 06:27:06;;;;;;;16.05;3.58;;;;;;;10.28;98.67;100813.97;5035018;28;20045;-74
2022/11/07 06:29:32;;;;;;;14.48;2.75;;;;;;;10.32;98.27;100807.72;5030662;28;21467;-75
2022/11/07 06:31:57;;;;;;;11.57;2.58;;;;;;;10.32;98.35;100823.63;5040405;28;20068;-75
2022/11/07 06:34:23;;;;;;;14.70;2.92;;;;;;;10.38;98.30;100814.66;5031753;28;20469;-75
2022/11/07 06:36:53;;;;;;;18.98;2.67;;;;;;;10.41;98.39;100821.66;5032514;28;20123;-74
2022/11/07 06:39:19;;;;;;;14.83;2.60;;;;;;;10.46;98.31;100830.38;5028327;28;20338;-75
2022/11/07 06:41:44;;;;;;;17.02;3.10;;;;;;;10.46;98.27;100830.38;5038298;28;20017;-74
2022/11/07 06:44:09;;;;;;;14.52;3.42;;;;;;;10.46;97.99;100827.72;5033056;28;20120;-74
2022/11/07 06:46:35;;;;;;;15.68;3.60;;;;;;;10.45;98.67;100818.94;5034234;28;20041;-74
2022/11/07 06:49:00;;;;;;;17.50;2.85;;;;;;;10.52;97.92;100823.19;5009588;28;20405;-75
2022/11/07 06:51:26;;;;;;;16.42;3.13;;;;;;;10.51;98.25;100828.53;5011123;28;20100;-74
2022/11/07 06:53:53;;;;;;;14.25;3.33;;;;;;;10.51;97.99;100831.19;5031385;28;20131;-74
2022/11/07 06:56:18;;;;;;;15.50;2.80;;;;;;;10.52;98.23;100832.91;5033371;28;20036;-74
2022/11/07 06:58:44;;;;;;;15.43;3.30;;;;;;;10.57;98.12;100840.75;5045914;28;20381;-74
2022/11/07 07:01:12;;;;;;;18.67;3.53;;;;;;;10.58;98.67;100850.44;5038619;28;20394;-74
2022/11/07 07:03:41;;;;;;;15.25;3.33;;;;;;;10.53;98.81;100840.84;5027581;28;20104;-74
2022/11/07 07:06:11;;;;;;;11.98;2.97;;;;;;;10.55;99.41;100854.03;5026460;28;20683;-74
2022/11/07 07:08:37;;;;;;;15.47;3.20;;;;;;;10.53;100.00;100848.78;5026766;28;20030;-74
2022/11/07 07:11:04;;;;;;;14.30;2.90;;;;;;;10.52;100.00;100847.00;5031008;28;20030;-73
2022/11/07 07:13:30;;;;;;;13.10;3.65;;;;;;;10.56;99.68;100850.47;5029394;28;20493;-73
2022/11/07 07:15:57;;;;;;;17.25;3.67;;;;;;;10.53;100.00;100854.06;5030773;28;20111;-73
2022/11/07 07:18:23;;;;;;;25.05;4.03;;;;;;;10.59;99.51;100857.50;5029526;28;20026;-73
2022/11/07 07:20:50;;;;;;;14.32;3.30;;;;;;;10.60;99.65;100862.72;5009584;28;20030;-74
2022/11/07 07:23:17;;;;;;;22.70;3.50;;;;;;;10.63;99.44;100864.44;5022633;28;20053;-73
2022/11/07 07:25:43;;;;;;;14.43;3.45;;;;;;;10.68;99.63;100859.91;5031941;28;20040;-73
2022/11/07 07:28:08;;;;;;;22.27;3.70;;;;;;;10.72;99.04;100872.19;5033693;28;20060;-73
2022/11/07 07:30:34;;;;;;;14.55;3.20;;;;;;;10.75;98.80;100872.97;5033425;28;20044;-73
2022/11/07 07:32:59;;;;;;;14.85;2.97;;;;;;;10.78;98.63;100866.78;5033876;28;20469;-73
2022/11/07 07:35:25;;;;;;;17.13;3.70;;;;;;;10.79;98.58;100875.59;5033393;28;20328;-74
2022/11/07 07:37:51;;;;;;;19.40;3.75;;;;;;;10.78;98.58;100869.44;5034629;28;20335;-73
2022/11/07 07:40:18;;;;;;;18.90;3.10;;;;;;;10.79;98.39;100878.25;5033552;28;20063;-73
2022/11/07 07:42:44;;;;;;;15.75;3.50;;;;;;;10.82;98.37;100865.78;5031578;28;20038;-74
2022/11/07 07:45:10;;;;;;;19.05;3.88;;;;;;;10.82;98.46;100867.56;5034886;28;20026;-74
2022/11/07 07:47:37;;;;;;;16.25;3.38;;;;;;;10.84;98.17;100869.28;5033138;28;20037;-74
2022/11/07 07:50:03;;;;;;;17.63;3.33;;;;;;;10.88;98.09;100868.31;5033365;28;20022;-74
2022/11/07 07:52:29;;;;;;;17.65;2.78;;;;;;;10.96;97.69;100884.03;5033246;28;20445;-74
2022/11/07 07:54:54;;;;;;;14.20;3.47;;;;;;;10.93;97.99;100877.03;5033322;28;20136;-74
2022/11/07 07:57:20;;;;;;;19.35;3.65;;;;;;;11.02;97.23;100883.00;5034543;28;20041;-74
2022/11/07 07:59:46;;;;;;;18.90;3.30;;;;;;;11.00;97.69;100890.13;5033243;28;20080;-75
2022/11/07 08:02:11;;;;;;;14.10;3.50;;;;;;;11.01;97.87;100878.63;5034534;28;20171;-74
2022/11/07 08:04:37;;;;;;;22.77;3.30;;;;;;;11.10;97.51;100896.94;5013576;28;20025;-74
2022/11/07 08:07:02;;;;;;;13.23;2.70;;;;;;;11.12;97.56;100893.34;5032716;28;20402;-74
2022/11/07 08:09:32;;;;;;;13.60;3.08;;;;;;;11.13;97.79;100891.59;5034616;28;20029;-74
2022/11/07 08:11:57;;;;;;;16.95;3.17;;;;;;;11.17;97.43;100902.06;5032940;28;20393;-75
2022/11/07 08:14:22;;;;;;;12.07;3.10;;;;;;;11.25;97.04;100895.72;5033069;28;20101;-75
2022/11/07 08:16:48;;;;;;;16.23;3.20;;;;;;;11.27;96.94;100897.41;5032817;28;20128;-74
2022/11/07 08:19:14;;;;;;;18.20;3.17;;;;;;;11.33;96.49;100899.06;5013108;28;20033;-74
2022/11/07 08:21:39;;;;;;;16.38;3.30;;;;;;;11.32;97.17;100892.88;5027168;28;20132;-75
2022/11/07 08:24:05;;;;;;;18.55;3.80;;;;;;;11.37;96.83;100903.38;5032896;28;20121;-75
2022/11/07 08:26:31;;;;;;;25.05;3.85;;;;;;;11.37;97.06;100903.38;5012854;28;20045;-75
2022/11/07 08:28:56;;;;;;;15.07;3.65;;;;;;;11.40;96.87;100905.97;5032818;28;20025;-74
2022/11/07 08:31:22;;;;;;;24.00;3.67;;;;;;;11.41;97.11;100897.97;5032713;28;20120;-75
2022/11/07 08:33:47;;;;;;;14.10;3.55;;;;;;;11.44;96.69;100909.41;5032714;28;20029;-74
2022/11/07 08:36:13;;;;;;;18.40;3.35;;;;;;;11.48;96.32;100914.59;5015723;28;20037;-74
2022/11/07 08:38:38;;;;;;;18.65;4.28;;;;;;;11.55;95.76;100913.56;5032390;28;20040;-74
2022/11/07 08:41:04;;;;;;;17.23;2.78;;;;;;;11.58;96.31;100923.22;5033477;28;20044;-74
2022/11/07 08:43:30;;;;;;;17.83;3.15;;;;;;;11.61;96.57;100921.34;5030492;28;20041;-74
2022/11/07 08:45:55;;;;;;;14.35;3.38;;;;;;;11.70;96.66;100924.69;5033524;28;20037;-73
2022/11/07 08:48:22;;;;;;;11.15;2.85;;;;;;;11.85;95.18;100929.59;5032360;28;20013;-74
2022/11/07 08:50:55;;;;;;;15.95;3.28;;;;;;;11.83;95.17;100929.63;5033533;28;20033;-73
2022/11/07 08:53:22;;;;;;;15.82;3.40;;;;;;;11.85;95.96;100934.91;5032457;28;20119;-74
2022/11/07 08:55:48;;;;;;;16.45;3.35;;;;;;;11.89;95.26;100931.28;5015840;28;20389;-74
2022/11/07 08:58:14;;;;;;;16.13;3.03;;;;;;;11.95;94.70;100951.50;5032224;28;20025;-74
2022/11/07 09:00:40;;;;;;;14.95;2.55;;;;;;;11.92;95.43;100944.50;5033401;28;20485;-73
2022/11/07 09:03:07;;;;;;;15.50;3.97;;;;;;;11.93;94.99;100961.28;5033343;28;20108;-74
2022/11/07 09:05:33;;;;;;;13.15;2.80;;;;;;;11.90;94.81;100953.41;5033261;28;20817;-74
2022/11/07 09:07:58;;;;;;;15.80;3.75;;;;;;;11.91;94.50;100963.09;5033184;28;20113;-74
2022/11/07 09:10:24;;;;;;;16.20;3.13;;;;;;;11.94;94.23;100958.59;5031923;28;20049;-74
2022/11/07 09:12:51;;;;;;;14.73;2.92;;;;;;;11.92;94.51;100963.06;5031990;28;20041;-74
2022/11/07 09:15:17;;;;;;;15.73;3.03;;;;;;;11.89;94.62;100952.50;5033135;28;20422;-74
2022/11/07 09:17:45;;;;;;;13.82;3.63;;;;;;;11.92;94.52;100965.72;5033327;28;20418;-74
2022/11/07 09:20:12;;;;;;;15.80;3.10;;;;;;;11.91;94.83;100968.41;5033012;28;20049;-74
2022/11/07 09:22:38;;;;;;;15.80;3.33;;;;;;;11.93;95.08;100970.09;5031443;28;20079;-74
2022/11/07 09:25:04;;;;;;;14.52;3.50;;;;;;;11.94;94.74;100963.00;5031758;28;20128;-74
2022/11/07 09:27:29;;;;;;;20.02;2.90;;;;;;;11.94;95.40;100968.31;5031568;28;20045;-74
2022/11/07 09:29:55;;;;;;;12.48;3.20;;;;;;;11.95;95.35;100970.94;5015211;28;20124;-74
2022/11/07 09:32:20;;;;;;;15.85;3.05;;;;;;;11.97;95.18;100970.91;5032724;28;20037;-74
2022/11/07 09:34:45;;;;;;;15.30;3.70;;;;;;;11.96;95.36;100974.47;5031797;28;20060;-74
2022/11/07 09:37:11;;;;;;;17.42;2.97;;;;;;;11.94;95.45;100977.19;5031261;28;20049;-74
2022/11/07 09:39:36;;;;;;;12.75;3.15;;;;;;;12.03;95.35;100976.06;5015174;28;20033;-75
2022/11/07 09:42:28;;;;;;;21.08;4.25;;;;;;;11.99;94.85;100975.28;5030356;28;20044;-74
2022/11/07 09:45:00;;;;;;;11.18;2.80;;;;;;;11.99;95.31;100977.03;5023007;28;20041;-75
2022/11/07 09:47:35;;;;;;;18.08;3.53;;;;;;;11.98;95.62;100978.81;5030482;28;20041;-74
2022/11/07 09:50:12;;;;;;;17.27;3.25;;;;;;;11.96;95.57;100985.94;5032528;28;20045;-75
2022/11/07 09:52:51;;;;;;;12.80;2.75;;;;;;;11.98;95.71;100983.25;5031113;28;20449;-74
2022/11/07 09:55:22;;;;;;;17.00;3.08;;;;;;;12.00;95.34;100990.28;5032609;28;20045;-74
2022/11/07 09:57:51;;;;;;;11.95;2.67;;;;;;;12.05;95.36;100991.03;5030932;28;20464;-75
2022/11/07 10:00:19;;;;;;;18.90;3.60;;;;;;;12.17;93.37;100981.03;4998319;28;20496;-74
2022/11/07 10:02:51;;;;;;;9.38;2.80;;;;;;;12.21;93.01;100990.63;5032370;28;20033;-74
2022/11/07 10:05:37;;;;;;;12.30;3.20;;;;;;;12.16;93.16;100980.13;5032139;28;20125;-74
2022/11/07 10:08:10;;;;;;;12.73;2.78;;;;;;;12.20;93.19;100992.41;5030892;28;20469;-74
2022/11/07 10:10:59;;;;;;;12.60;3.08;;;;;;;12.22;93.12;100979.97;5031123;28;20083;-74
2022/11/07 10:13:58;;;;;;;26.15;4.32;;;;;;;12.25;93.46;100973.72;5030727;28;20041;-73
2022/11/07 10:16:31;;;;;;;22.35;3.63;;;;;;;12.31;93.51;100981.50;5027251;28;20116;-74
2022/11/07 10:19:26;;;;;;;14.90;2.78;;;;;;;12.41;92.21;100998.06;5034459;28;20041;-74
2022/11/07 10:22:16;;;;;;;23.10;3.58;;;;;;;12.47;92.64;100981.97;5034010;28;20049;-73
2022/11/07 10:25:10;;;;;;;14.02;3.20;;;;;;;12.50;92.62;100991.66;5030708;28;20033;-73
2022/11/07 10:27:37;;;;;;;17.58;3.80;;;;;;;12.52;92.39;101003.97;5032982;28;20076;-76
2022/11/07 10:30:14;;;;;;;14.57;3.22;;;;;;;12.56;92.39;101002.09;5018263;28;20069;-75
2022/11/07 10:32:50;;;;;;;25.98;3.72;;;;;;;12.58;92.70;101006.44;5034209;28;20087;-74
2022/11/07 10:35:25;;;;;;;11.73;3.00;;;;;;;12.58;91.94;101001.13;5024628;28;20117;-74
2022/11/07 10:37:56;;;;;;;11.90;3.00;;;;;;;12.58;91.47;101003.78;5031290;28;20064;-74
2022/11/07 10:40:25;;;;;;;17.55;3.67;;;;;;;12.58;91.53;101010.88;5030990;28;20330;-74
2022/11/07 10:42:52;;;;;;;15.07;3.45;;;;;;;12.60;91.62;101017.91;5031442;28;20026;-74
2022/11/07 10:45:17;;;;;;;18.88;4.45;;;;;;;12.68;91.59;101020.34;5017128;28;20116;-74
2022/11/07 10:47:58;;;;;;;14.60;3.22;;;;;;;12.76;90.74;101026.34;5029173;28;20120;-75
2022/11/07 10:50:24;;;;;;;15.50;3.40;;;;;;;12.77;90.00;101027.22;5031265;28;20507;-74
2022/11/07 10:53:00;;;;;;;14.52;3.15;;;;;;;12.84;89.82;101027.00;5028507;28;20022;-74
2022/11/07 10:55:27;;;;;;;21.25;4.03;;;;;;;12.93;88.93;101028.50;5035009;28;20039;-74
2022/11/07 10:57:58;;;;;;;22.02;3.40;;;;;;;12.90;88.89;101021.47;5017113;28;20032;-74
2022/11/07 11:00:30;;;;;;;17.13;3.78;;;;;;;12.94;89.64;101027.59;5017420;28;20036;-74
2022/11/07 11:02:57;;;;;;;18.73;3.58;;;;;;;12.96;89.08;101020.47;5029880;28;20048;-78
2022/11/07 11:05:42;;;;;;;22.42;3.67;;;;;;;12.97;90.45;101022.19;5029645;28;20017;-78
2022/11/07 11:08:19;;;;;;;15.50;2.97;;;;;;;12.98;89.76;101015.06;5031540;28;20111;-78
2022/11/07 11:10:46;;;;;;;16.38;3.20;;;;;;;12.99;89.08;101016.84;5027837;28;20101;-78
2022/11/07 11:13:29;;;;;;;21.88;3.90;;;;;;;13.01;88.30;101010.56;5024456;28;20140;-78
2022/11/07 11:16:07;;;;;;;16.95;3.92;;;;;;;13.01;88.05;101015.00;5030888;28;20050;-78
2022/11/07 11:18:33;;;;;;;16.15;3.42;;;;;;;13.05;88.30;101011.31;5034696;28;20038;-78
2022/11/07 11:21:04;;;;;;;17.33;3.03;;;;;;;13.13;88.12;101001.34;5037484;28;20033;-78
2022/11/07 11:23:35;;;;;;;16.63;3.80;;;;;;;13.19;86.71;101003.81;5023215;28;20060;-78
2022/11/07 11:26:05;;;;;;;16.50;4.05;;;;;;;13.23;86.27;101004.59;5031102;28;20037;-78
2022/11/07 11:28:54;;;;;;;14.65;3.65;;;;;;;13.36;85.85;101003.34;5039439;28;20033;-77
2022/11/07 11:31:28;;;;;;;14.93;3.05;;;;;;;13.32;85.65;101009.66;5032481;28;20067;-77
2022/11/07 11:34:00;;;;;;;13.95;3.35;;;;;;;13.32;84.96;100997.22;5036597;28;20037;-77